Terminal Aerodrome Forecast
Issued by NWS

Home | Current Version | Previous Version | Text Only | Print | Product List | Glossary On
Versions: 1 2 3 4 5 6 7 8 9 10 11 12 13 14 15 16
000
FTPQ31 PGUM 252300
TAFPQ
TAF

PGWT 252321Z 2600/2624 07013KT P6SM VCSH SCT016 SCT040 BKN120
      TEMPO 2601/2604 07013G22KT 5SM SHRA SCT015 BKN030=

USA.gov is the U.S. government's official web portal to all federal, state and local government web resources and services.